Time;durP1;ratioP1;P1;durP2;ratioP2;P2;SDS_P1;SDS_P2;PMS_P1;PMS_P2;Temp;Humidity;BMP_temperature;BMP_pressure;BME280_temperature;BME280_humidity;BME280_pressure;Samples;Min_cycle;Max_cycle;Signal;HPM_P1;HPM_P2
2023/06/12 00:01:19;;;;;;;;;;;21.40;60.60;;;;;;6295353;28;19909;-71
2023/06/12 00:04:21;;;;;;;;;;;21.40;60.50;;;;;;6294999;28;19920;-72
2023/06/12 00:07:21;;;;;;;;;;;21.50;60.60;;;;;;6295324;28;20291;-72
2023/06/12 00:10:23;;;;;;;;;;;21.50;60.60;;;;;;6295017;28;19958;-72
2023/06/12 00:13:23;;;;;;;;;;;21.50;60.60;;;;;;6294704;28;19921;-71
2023/06/12 00:16:24;;;;;;;;;;;21.40;60.60;;;;;;6295101;28;20583;-72
2023/06/12 00:19:27;;;;;;;;;;;21.50;60.60;;;;;;6294758;28;19909;-71
2023/06/12 00:22:27;;;;;;;;;;;21.50;60.70;;;;;;6294944;28;19908;-71
2023/06/12 00:25:28;;;;;;;;;;;21.40;60.50;;;;;;6294590;28;20377;-72
2023/06/12 00:28:29;;;;;;;;;;;21.40;60.50;;;;;;6294727;28;19962;-72
2023/06/12 00:31:29;;;;;;;;;;;21.50;60.60;;;;;;6294728;28;19916;-72
2023/06/12 00:34:30;;;;;;;;;;;21.50;60.60;;;;;;6294624;28;20054;-72
2023/06/12 00:37:31;;;;;;;;;;;21.40;60.60;;;;;;6294725;28;19908;-71
2023/06/12 00:40:31;;;;;;;;;;;21.50;60.70;;;;;;6294353;28;19919;-71
2023/06/12 00:43:31;;;;;;;;;;;21.50;60.60;;;;;;6294742;28;19962;-72
2023/06/12 00:46:32;;;;;;;;;;;21.50;60.60;;;;;;6294538;28;19915;-72
2023/06/12 00:49:32;;;;;;;;;;;21.50;60.70;;;;;;6294189;28;19909;-71
2023/06/12 00:52:34;;;;;;;;;;;21.50;60.70;;;;;;6294487;28;19956;-71
2023/06/12 00:55:35;;;;;;;;;;;21.50;60.60;;;;;;6294473;28;19939;-71
2023/06/12 00:58:36;;;;;;;;;;;21.50;60.60;;;;;;6293666;28;19909;-72
2023/06/12 01:01:36;;;;;;;;;;;21.50;60.60;;;;;;6294357;28;19914;-71
2023/06/12 01:04:37;;;;;;;;;;;21.50;60.60;;;;;;6293884;28;19921;-72
2023/06/12 01:07:48;;;;;;;;;;;21.50;60.70;;;;;;6294702;28;19909;-72
2023/06/12 01:10:54;;;;;;;;;;;21.50;60.60;;;;;;6293926;28;20446;-71
2023/06/12 01:13:54;;;;;;;;;;;21.50;60.60;;;;;;6294176;28;19916;-71
2023/06/12 01:16:58;;;;;;;;;;;21.40;60.50;;;;;;6294030;28;19909;-71
2023/06/12 01:20:11;;;;;;;;;;;21.40;60.40;;;;;;6294119;28;20330;-72
2023/06/12 01:23:15;;;;;;;;;;;21.40;60.50;;;;;;6294285;28;19917;-72
2023/06/12 01:26:25;;;;;;;;;;;21.50;60.60;;;;;;6294176;28;19999;-72
2023/06/12 01:29:39;;;;;;;;;;;21.40;60.50;;;;;;6294038;28;20433;-72
2023/06/12 01:32:40;;;;;;;;;;;21.40;60.50;;;;;;6268940;28;19960;-73
2023/06/12 01:35:43;;;;;;;;;;;21.50;60.60;;;;;;6278593;28;19915;-72
2023/06/12 01:38:45;;;;;;;;;;;21.50;60.70;;;;;;6298488;28;20001;-72
2023/06/12 01:41:46;;;;;;;;;;;21.50;60.60;;;;;;6298725;28;19908;-72
2023/06/12 01:44:49;;;;;;;;;;;21.50;60.60;;;;;;6298497;28;19916;-72
2023/06/12 01:47:49;;;;;;;;;;;21.50;60.60;;;;;;6298563;28;19915;-71
2023/06/12 01:50:50;;;;;;;;;;;21.40;60.60;;;;;;6298205;28;20594;-71
2023/06/12 01:53:51;;;;;;;;;;;21.40;60.50;;;;;;6298071;28;19956;-72
2023/06/12 01:56:51;;;;;;;;;;;21.50;60.60;;;;;;6298259;28;20287;-71
2023/06/12 01:59:53;;;;;;;;;;;21.50;60.60;;;;;;6297676;28;19909;-71
2023/06/12 02:02:55;;;;;;;;;;;21.40;60.50;;;;;;6297317;28;19931;-71
2023/06/12 02:05:55;;;;;;;;;;;21.40;60.50;;;;;;6296759;28;20003;-72
2023/06/12 02:08:56;;;;;;;;;;;21.40;60.50;;;;;;6297353;28;19927;-71
2023/06/12 02:11:56;;;;;;;;;;;21.50;60.70;;;;;;6296769;28;19943;-72
2023/06/12 02:14:57;;;;;;;;;;;21.40;60.50;;;;;;6296615;28;20702;-72
2023/06/12 02:17:57;;;;;;;;;;;21.40;60.60;;;;;;6297232;28;19995;-72
2023/06/12 02:20:58;;;;;;;;;;;21.50;60.70;;;;;;6297288;28;19962;-72
2023/06/12 02:23:58;;;;;;;;;;;21.40;60.60;;;;;;6296915;28;19909;-72
2023/06/12 02:26:59;;;;;;;;;;;21.50;60.60;;;;;;6296916;28;19912;-72
2023/06/12 02:29:59;;;;;;;;;;;21.40;60.50;;;;;;6297051;28;19915;-72
2023/06/12 02:33:02;;;;;;;;;;;21.50;60.60;;;;;;6295562;28;19923;-72
2023/06/12 02:36:03;;;;;;;;;;;21.40;60.60;;;;;;6296237;28;19964;-71
2023/06/12 02:39:05;;;;;;;;;;;21.50;60.60;;;;;;6294690;28;20381;-71
2023/06/12 02:42:07;;;;;;;;;;;21.50;60.70;;;;;;6296818;28;19912;-71
2023/06/12 02:45:08;;;;;;;;;;;21.40;60.50;;;;;;6296561;28;19908;-72
2023/06/12 02:48:08;;;;;;;;;;;21.50;60.60;;;;;;6296622;28;20540;-72
2023/06/12 02:51:09;;;;;;;;;;;21.50;60.60;;;;;;6296749;28;19912;-71
2023/06/12 02:54:09;;;;;;;;;;;21.40;60.60;;;;;;6295966;28;20170;-72
2023/06/12 02:57:10;;;;;;;;;;;21.40;60.60;;;;;;6296366;28;19960;-72
2023/06/12 03:00:12;;;;;;;;;;;21.40;60.50;;;;;;6296606;28;19908;-71
2023/06/12 03:03:13;;;;;;;;;;;21.50;60.60;;;;;;6297429;28;19927;-72
2023/06/12 03:06:14;;;;;;;;;;;21.40;60.60;;;;;;6296931;28;19916;-71
2023/06/12 03:09:18;;;;;;;;;;;21.50;60.70;;;;;;6297322;28;19984;-72
2023/06/12 03:12:18;;;;;;;;;;;21.50;60.60;;;;;;6297333;28;19917;-71
2023/06/12 03:15:19;;;;;;;;;;;21.50;60.70;;;;;;6296305;28;19915;-72
2023/06/12 03:18:19;;;;;;;;;;;21.40;60.60;;;;;;6296795;28;19912;-72
2023/06/12 03:21:20;;;;;;;;;;;21.50;60.60;;;;;;6297144;28;20363;-71
2023/06/12 03:24:20;;;;;;;;;;;21.40;60.50;;;;;;6296569;28;19908;-71
2023/06/12 03:27:22;;;;;;;;;;;21.40;60.50;;;;;;6296270;28;19908;-71
2023/06/12 03:30:22;;;;;;;;;;;21.50;60.60;;;;;;6296509;28;19912;-71
2023/06/12 03:33:23;;;;;;;;;;;21.40;60.50;;;;;;6296314;28;19927;-72
2023/06/12 03:36:25;;;;;;;;;;;21.50;60.60;;;;;;6295759;28;20003;-72
2023/06/12 03:39:25;;;;;;;;;;;21.40;60.50;;;;;;6296124;28;19951;-71
2023/06/12 03:42:26;;;;;;;;;;;21.50;60.60;;;;;;6296199;28;20336;-72
2023/06/12 03:45:26;;;;;;;;;;;21.40;60.50;;;;;;6296172;28;19916;-72
2023/06/12 03:48:27;;;;;;;;;;;21.40;60.50;;;;;;6295995;28;19917;-72
2023/06/12 03:51:27;;;;;;;;;;;21.40;60.50;;;;;;6295618;28;20352;-72
2023/06/12 03:54:28;;;;;;;;;;;21.50;60.70;;;;;;6293633;28;19916;-71
2023/06/12 03:57:28;;;;;;;;;;;21.40;60.50;;;;;;6295244;28;19915;-71
2023/06/12 04:00:41;;;;;;;;;;;21.40;60.50;;;;;;6295395;28;20336;-71
2023/06/12 04:03:44;;;;;;;;;;;21.50;60.60;;;;;;6295411;28;19929;-71
2023/06/12 04:06:45;;;;;;;;;;;21.50;60.60;;;;;;6295514;28;19944;-71
2023/06/12 04:09:46;;;;;;;;;;;21.50;60.60;;;;;;6295462;28;19999;-72
2023/06/12 04:12:46;;;;;;;;;;;21.50;60.60;;;;;;6295337;28;19924;-71
2023/06/12 04:15:47;;;;;;;;;;;21.40;60.50;;;;;;6295483;28;20381;-72
2023/06/12 04:18:47;;;;;;;;;;;21.40;60.50;;;;;;6295021;28;19995;-72
2023/06/12 04:21:49;;;;;;;;;;;21.50;60.60;;;;;;6295097;28;19915;-72
2023/06/12 04:24:49;;;;;;;;;;;21.50;60.60;;;;;;6294961;28;20255;-72
2023/06/12 04:27:50;;;;;;;;;;;21.40;60.50;;;;;;6294868;28;19909;-71
2023/06/12 04:30:51;;;;;;;;;;;21.40;60.50;;;;;;6295152;28;20425;-71
2023/06/12 04:33:52;;;;;;;;;;;21.50;60.60;;;;;;6294896;28;19917;-72
2023/06/12 04:36:52;;;;;;;;;;;21.50;60.60;;;;;;6294949;28;19908;-71
2023/06/12 04:39:55;;;;;;;;;;;21.40;60.40;;;;;;6294825;28;19908;-73
2023/06/12 04:42:56;;;;;;;;;;;21.50;60.60;;;;;;6294969;28;19919;-71
2023/06/12 04:45:57;;;;;;;;;;;21.50;60.60;;;;;;6294917;28;19940;-72
2023/06/12 04:48:57;;;;;;;;;;;21.50;60.60;;;;;;6294839;28;19913;-72
2023/06/12 04:52:00;;;;;;;;;;;21.40;60.50;;;;;;6294867;28;19908;-71
2023/06/12 04:55:01;;;;;;;;;;;21.50;60.60;;;;;;6294745;28;19915;-72
2023/06/12 04:58:02;;;;;;;;;;;21.40;60.50;;;;;;6294723;28;19959;-71
2023/06/12 05:01:02;;;;;;;;;;;21.40;60.60;;;;;;6292261;28;21069;-71
2023/06/12 05:04:03;;;;;;;;;;;21.50;60.60;;;;;;6277140;28;19920;-72
2023/06/12 05:07:16;;;;;;;;;;;21.50;60.60;;;;;;6287775;28;19954;-71
2023/06/12 05:10:17;;;;;;;;;;;21.40;60.40;;;;;;6288391;28;20012;-72
2023/06/12 05:13:17;;;;;;;;;;;21.50;60.70;;;;;;6297363;28;19921;-71
2023/06/12 05:16:18;;;;;;;;;;;21.50;60.60;;;;;;6299029;28;19931;-71
2023/06/12 05:19:18;;;;;;;;;;;21.40;60.50;;;;;;6299207;28;19960;-72
2023/06/12 05:22:19;;;;;;;;;;;21.50;60.60;;;;;;6298855;28;19916;-71
2023/06/12 05:25:20;;;;;;;;;;;21.40;60.50;;;;;;6284097;28;20077;-71
2023/06/12 05:28:20;;;;;;;;;;;21.50;60.60;;;;;;6296554;28;19966;-71
2023/06/12 05:31:21;;;;;;;;;;;21.50;60.60;;;;;;6297429;28;19959;-71
2023/06/12 05:34:21;;;;;;;;;;;21.50;60.60;;;;;;6300381;28;19942;-71
2023/06/12 05:37:22;;;;;;;;;;;21.50;60.60;;;;;;6310006;28;20386;-71
2023/06/12 05:40:22;;;;;;;;;;;21.50;60.60;;;;;;6297622;28;19908;-71
2023/06/12 05:43:23;;;;;;;;;;;21.50;60.60;;;;;;6297933;28;19908;-71
2023/06/12 05:46:23;;;;;;;;;;;21.50;60.60;;;;;;6316179;28;19912;-71
2023/06/12 05:49:24;;;;;;;;;;;21.50;60.60;;;;;;6318228;28;19909;-71
2023/06/12 05:52:24;;;;;;;;;;;21.40;60.40;;;;;;6297595;28;19960;-71
2023/06/12 05:55:25;;;;;;;;;;;21.50;60.60;;;;;;6306679;28;19955;-71
2023/06/12 05:58:26;;;;;;;;;;;21.50;60.60;;;;;;6315567;28;19909;-71
2023/06/12 06:01:26;;;;;;;;;;;21.50;60.60;;;;;;6292107;28;20363;-71
2023/06/12 06:04:27;;;;;;;;;;;21.50;60.60;;;;;;6299854;28;19921;-71
2023/06/12 06:07:28;;;;;;;;;;;21.50;60.60;;;;;;6322943;28;19912;-72
2023/06/12 06:10:29;;;;;;;;;;;21.50;60.60;;;;;;6309935;28;19920;-71
2023/06/12 06:13:31;;;;;;;;;;;21.50;60.60;;;;;;6307310;28;19920;-71
2023/06/12 06:16:31;;;;;;;;;;;21.50;61.40;;;;;;6297683;28;19908;-71
2023/06/12 06:19:32;;;;;;;;;;;21.50;60.50;;;;;;6296412;28;19912;-71
2023/06/12 06:22:32;;;;;;;;;;;21.50;60.60;;;;;;6291283;28;19916;-71
2023/06/12 06:25:33;;;;;;;;;;;21.50;60.60;;;;;;6313567;28;19961;-71
2023/06/12 06:28:33;;;;;;;;;;;21.50;60.60;;;;;;6297493;28;20393;-71
2023/06/12 06:31:34;;;;;;;;;;;21.40;60.40;;;;;;6311228;28;19908;-72
2023/06/12 06:34:34;;;;;;;;;;;21.50;60.50;;;;;;6322585;28;19961;-71
2023/06/12 06:37:35;;;;;;;;;;;21.50;60.50;;;;;;6297360;28;19908;-72
2023/06/12 06:40:36;;;;;;;;;;;21.50;60.50;;;;;;6299857;28;20265;-71
2023/06/12 06:43:36;;;;;;;;;;;21.40;60.40;;;;;;6285600;28;19961;-71
2023/06/12 06:46:37;;;;;;;;;;;21.50;60.50;;;;;;6306659;28;19908;-71
2023/06/12 06:49:38;;;;;;;;;;;21.50;60.60;;;;;;6297026;28;19908;-71
2023/06/12 06:52:38;;;;;;;;;;;21.50;60.60;;;;;;6309606;28;19954;-71
2023/06/12 06:55:42;;;;;;;;;;;21.50;60.50;;;;;;6299613;28;19908;-71
2023/06/12 06:58:42;;;;;;;;;;;21.50;60.50;;;;;;6311250;28;19957;-72
2023/06/12 07:01:43;;;;;;;;;;;21.50;60.50;;;;;;6306797;28;20371;-71
2023/06/12 07:04:44;;;;;;;;;;;21.50;60.50;;;;;;6208419;28;1844831;-71
2023/06/12 07:07:46;;;;;;;;;;;21.50;61.40;;;;;;6315345;28;20359;-71
2023/06/12 07:10:47;;;;;;;;;;;21.50;60.50;;;;;;6319059;28;19909;-72
2023/06/12 07:13:47;;;;;;;;;;;21.50;60.50;;;;;;6298012;28;19916;-72
2023/06/12 07:16:48;;;;;;;;;;;21.50;60.60;;;;;;6308789;28;19973;-72
2023/06/12 07:19:48;;;;;;;;;;;21.50;60.50;;;;;;6321704;28;19912;-71
2023/06/12 07:22:49;;;;;;;;;;;21.50;60.50;;;;;;6299863;28;19909;-71
2023/06/12 07:25:49;;;;;;;;;;;21.40;60.40;;;;;;6294604;28;20000;-71
2023/06/12 07:28:50;;;;;;;;;;;21.50;61.40;;;;;;6295569;28;20153;-71
2023/06/12 07:31:50;;;;;;;;;;;21.50;60.60;;;;;;6303992;28;20017;-71
2023/06/12 07:34:54;;;;;;;;;;;21.50;60.50;;;;;;6318723;28;20003;-71
2023/06/12 07:37:55;;;;;;;;;;;21.50;60.60;;;;;;6301753;28;20282;-71
2023/06/12 07:40:55;;;;;;;;;;;21.50;60.50;;;;;;6307312;28;19912;-71
2023/06/12 07:43:56;;;;;;;;;;;21.50;60.60;;;;;;6269686;28;19916;-71
2023/06/12 07:46:56;;;;;;;;;;;21.50;60.60;;;;;;6285633;28;19913;-71
2023/06/12 07:49:58;;;;;;;;;;;21.60;60.40;;;;;;6295026;28;20355;-72
2023/06/12 07:52:58;;;;;;;;;;;21.70;60.50;;;;;;6295161;28;19978;-72
2023/06/12 07:55:59;;;;;;;;;;;21.70;60.50;;;;;;6295348;28;19917;-71
2023/06/12 07:59:06;;;;;;;;;;;21.80;60.40;;;;;;6314512;28;20216;-71
2023/06/12 08:02:07;;;;;;;;;;;21.80;60.20;;;;;;6310379;28;20283;-71
2023/06/12 08:05:08;;;;;;;;;;;21.80;60.10;;;;;;6294826;28;19927;-72
2023/06/12 08:08:09;;;;;;;;;;;21.80;60.10;;;;;;6308646;28;19912;-71
2023/06/12 08:11:10;;;;;;;;;;;21.90;60.00;;;;;;6320496;28;19912;-71
2023/06/12 08:14:10;;;;;;;;;;;21.90;60.00;;;;;;6294889;28;19928;-72
2023/06/12 08:17:11;;;;;;;;;;;21.90;60.00;;;;;;6297070;28;20278;-72
2023/06/12 08:20:11;;;;;;;;;;;21.90;60.00;;;;;;6320505;28;19998;-71
2023/06/12 08:23:12;;;;;;;;;;;21.80;59.90;;;;;;6304593;28;20389;-71
2023/06/12 08:26:12;;;;;;;;;;;21.80;60.00;;;;;;6294912;28;20017;-71
2023/06/12 08:29:13;;;;;;;;;;;21.80;59.90;;;;;;6300253;28;19912;-71
2023/06/12 08:32:13;;;;;;;;;;;21.90;60.00;;;;;;6294573;28;20425;-72
2023/06/12 08:35:14;;;;;;;;;;;21.90;60.00;;;;;;6294175;28;19966;-71
2023/06/12 08:38:14;;;;;;;;;;;21.90;60.00;;;;;;6304909;28;20440;-72
2023/06/12 08:41:17;;;;;;;;;;;21.90;60.00;;;;;;6286286;28;19916;-71
2023/06/12 08:44:21;;;;;;;;;;;21.90;60.00;;;;;;6300069;28;20385;-72
2023/06/12 08:47:22;;;;;;;;;;;21.90;59.90;;;;;;6314677;28;19909;-71
2023/06/12 08:50:22;;;;;;;;;;;21.90;60.00;;;;;;6294902;28;19939;-71
2023/06/12 08:53:23;;;;;;;;;;;21.90;60.00;;;;;;6301642;28;19920;-71
2023/06/12 08:56:25;;;;;;;;;;;21.90;59.90;;;;;;6319263;28;19995;-72
2023/06/12 08:59:25;;;;;;;;;;;21.90;59.80;;;;;;6276546;28;19920;-71
2023/06/12 09:02:27;;;;;;;;;;;21.90;59.80;;;;;;6283883;28;20344;-70
2023/06/12 09:05:29;;;;;;;;;;;21.90;59.80;;;;;;6318188;28;19912;-72
2023/06/12 09:08:30;;;;;;;;;;;22.00;59.60;;;;;;6307345;28;20383;-71
2023/06/12 09:11:33;;;;;;;;;;;22.00;60.00;;;;;;6294693;28;19975;-72
2023/06/12 09:14:35;;;;;;;;;;;22.00;59.90;;;;;;6301252;28;19917;-71
2023/06/12 09:17:37;;;;;;;;;;;22.00;59.90;;;;;;6294487;28;19908;-72
2023/06/12 09:20:38;;;;;;;;;;;22.00;60.00;;;;;;6318723;28;19919;-71
2023/06/12 09:23:40;;;;;;;;;;;22.00;60.00;;;;;;6308950;28;19909;-72
2023/06/12 09:26:41;;;;;;;;;;;22.00;60.00;;;;;;6294082;28;19915;-71
2023/06/12 09:29:45;;;;;;;;;;;22.00;60.00;;;;;;6303419;28;19912;-72
2023/06/12 09:32:47;;;;;;;;;;;22.00;60.40;;;;;;6317405;28;19927;-72
2023/06/12 09:35:51;;;;;;;;;;;22.00;60.20;;;;;;6293531;28;19908;-72
2023/06/12 09:38:52;;;;;;;;;;;22.00;60.00;;;;;;6293534;28;20011;-73
2023/06/12 09:41:54;;;;;;;;;;;22.00;60.00;;;;;;6294130;28;19912;-72
2023/06/12 09:44:54;;;;;;;;;;;22.00;60.00;;;;;;6303464;28;19908;-72
2023/06/12 09:47:55;;;;;;;;;;;22.00;59.90;;;;;;6318699;28;19909;-72
2023/06/12 09:50:56;;;;;;;;;;;22.00;59.90;;;;;;6294205;28;19932;-72
2023/06/12 09:53:57;;;;;;;;;;;22.00;59.90;;;;;;6293850;28;19920;-73
2023/06/12 09:56:59;;;;;;;;;;;22.00;59.90;;;;;;6322143;28;19915;-72
2023/06/12 10:00:01;;;;;;;;;;;22.00;59.90;;;;;;6306683;28;20390;-72
2023/06/12 10:03:05;;;;;;;;;;;22.00;59.90;;;;;;6304721;28;19925;-73
2023/06/12 10:06:08;;;;;;;;;;;22.00;59.90;;;;;;6293862;28;19909;-72
2023/06/12 10:09:10;;;;;;;;;;;22.00;59.80;;;;;;6297275;28;19908;-72
2023/06/12 10:12:11;;;;;;;;;;;22.00;59.80;;;;;;6323739;28;19908;-72
2023/06/12 10:15:15;;;;;;;;;;;22.00;59.80;;;;;;6306746;28;19970;-72
2023/06/12 10:18:16;;;;;;;;;;;22.00;59.80;;;;;;6298271;28;19923;-72
2023/06/12 10:21:20;;;;;;;;;;;22.00;59.90;;;;;;6313238;28;20703;-73
2023/06/12 10:24:21;;;;;;;;;;;21.90;59.80;;;;;;6313543;28;20007;-72
2023/06/12 10:27:22;;;;;;;;;;;21.90;59.90;;;;;;6298598;28;20442;-72
2023/06/12 10:30:22;;;;;;;;;;;21.90;59.90;;;;;;6300208;28;19916;-72
2023/06/12 10:33:25;;;;;;;;;;;21.90;60.00;;;;;;6315247;28;20391;-72
2023/06/12 10:36:35;;;;;;;;;;;21.90;60.00;;;;;;6296907;28;19998;-72
2023/06/12 10:39:36;;;;;;;;;;;21.90;59.90;;;;;;6297290;28;19912;-72
2023/06/12 10:42:52;;;;;;;;;;;21.90;60.00;;;;;;6297510;28;20101;-72
2023/06/12 10:45:57;;;;;;;;;;;21.90;59.90;;;;;;6302147;28;19912;-72
2023/06/12 10:49:04;;;;;;;;;;;21.90;59.90;;;;;;6321407;28;19963;-72
2023/06/12 10:52:17;;;;;;;;;;;21.90;60.00;;;;;;6295685;28;19908;-72
2023/06/12 10:55:19;;;;;;;;;;;21.90;60.00;;;;;;6301565;28;19908;-72
2023/06/12 10:58:20;;;;;;;;;;;21.90;60.00;;;;;;6322690;28;19908;-72
2023/06/12 11:01:23;;;;;;;;;;;21.80;60.00;;;;;;6299718;28;19916;-72
2023/06/12 11:04:23;;;;;;;;;;;21.80;59.90;;;;;;6294795;28;19925;-72
2023/06/12 11:07:25;;;;;;;;;;;21.80;60.80;;;;;;6316733;28;19973;-72
2023/06/12 11:10:26;;;;;;;;;;;21.80;60.00;;;;;;6311220;28;20295;-72
2023/06/12 11:13:27;;;;;;;;;;;21.80;60.00;;;;;;6296330;28;19927;-72
2023/06/12 11:16:28;;;;;;;;;;;21.80;60.00;;;;;;6302583;28;20348;-72
2023/06/12 11:19:29;;;;;;;;;;;21.80;60.10;;;;;;6320449;28;19977;-72
2023/06/12 11:22:29;;;;;;;;;;;21.80;60.10;;;;;;6295831;28;19916;-72
2023/06/12 11:25:34;;;;;;;;;;;21.80;60.10;;;;;;6296320;28;19917;-72
2023/06/12 11:28:34;;;;;;;;;;;21.80;60.10;;;;;;6297258;28;19977;-72
2023/06/12 11:31:36;;;;;;;;;;;21.80;60.10;;;;;;6297724;28;20184;-72
2023/06/12 11:34:37;;;;;;;;;;;21.80;61.00;;;;;;6321016;28;19920;-72
2023/06/12 11:37:38;;;;;;;;;;;21.80;60.10;;;;;;6295855;28;19939;-72
2023/06/12 11:40:39;;;;;;;;;;;21.70;60.00;;;;;;6297841;28;19948;-72
2023/06/12 11:43:42;;;;;;;;;;;21.80;60.20;;;;;;6296667;28;19915;-72
2023/06/12 11:46:43;;;;;;;;;;;21.70;60.00;;;;;;6293225;28;19912;-72
2023/06/12 11:49:43;;;;;;;;;;;21.80;60.20;;;;;;6295904;28;19909;-72
2023/06/12 11:52:45;;;;;;;;;;;21.80;60.20;;;;;;6295668;28;19968;-72
2023/06/12 11:55:46;;;;;;;;;;;21.70;60.10;;;;;;6290359;28;19913;-72
2023/06/12 11:58:47;;;;;;;;;;;21.70;60.10;;;;;;6318746;28;19978;-72
2023/06/12 12:01:48;;;;;;;;;;;21.80;60.60;;;;;;6300469;28;19909;-73
2023/06/12 12:04:48;;;;;;;;;;;21.80;60.40;;;;;;6269166;28;19971;-73
2023/06/12 12:07:50;;;;;;;;;;;21.80;60.40;;;;;;6306857;28;19909;-73
2023/06/12 12:10:50;;;;;;;;;;;21.80;60.30;;;;;;6293530;28;19962;-72
2023/06/12 12:14:01;;;;;;;;;;;21.80;60.30;;;;;;6293832;28;19960;-72
2023/06/12 12:17:06;;;;;;;;;;;21.80;60.10;;;;;;6300284;28;19965;-72
2023/06/12 12:20:12;;;;;;;;;;;21.80;60.10;;;;;;6291678;28;19910;-73
2023/06/12 12:23:13;;;;;;;;;;;21.80;60.20;;;;;;6290786;28;19921;-72
2023/06/12 12:26:15;;;;;;;;;;;21.80;60.30;;;;;;6291196;28;20403;-72
2023/06/12 12:29:15;;;;;;;;;;;21.80;60.40;;;;;;6291265;28;19916;-72
2023/06/12 12:32:16;;;;;;;;;;;21.80;60.40;;;;;;6290759;28;20359;-73
2023/06/12 12:35:17;;;;;;;;;;;21.80;60.40;;;;;;6291196;28;19912;-73
2023/06/12 12:38:18;;;;;;;;;;;21.80;60.50;;;;;;6291046;28;20345;-73
2023/06/12 12:41:19;;;;;;;;;;;21.80;60.40;;;;;;6291187;28;19916;-73
2023/06/12 12:44:19;;;;;;;;;;;21.80;60.40;;;;;;6290668;28;19912;-73
2023/06/12 12:47:20;;;;;;;;;;;21.80;60.40;;;;;;6289830;28;19912;-71
2023/06/12 12:50:21;;;;;;;;;;;21.80;61.30;;;;;;6291740;28;19955;-73
2023/06/12 12:53:22;;;;;;;;;;;21.80;60.40;;;;;;6290496;28;19963;-73
2023/06/12 12:56:22;;;;;;;;;;;21.80;60.40;;;;;;6290883;28;19916;-73
2023/06/12 12:59:23;;;;;;;;;;;21.80;60.50;;;;;;6290616;28;19913;-72
2023/06/12 13:02:23;;;;;;;;;;;21.70;60.30;;;;;;6290243;28;19919;-73
2023/06/12 13:05:24;;;;;;;;;;;21.80;60.50;;;;;;6290477;28;19909;-72
2023/06/12 13:08:25;;;;;;;;;;;21.70;60.30;;;;;;6289179;28;19912;-73
2023/06/12 13:11:26;;;;;;;;;;;21.70;60.40;;;;;;6291591;28;19909;-73
2023/06/12 13:14:26;;;;;;;;;;;21.70;60.30;;;;;;6288978;28;19924;-72
2023/06/12 13:17:28;;;;;;;;;;;21.80;60.40;;;;;;6290462;28;20303;-73
2023/06/12 13:20:29;;;;;;;;;;;21.80;60.40;;;;;;6290862;28;20306;-73
2023/06/12 13:23:30;;;;;;;;;;;21.80;60.30;;;;;;6290964;28;19909;-72
2023/06/12 13:26:31;;;;;;;;;;;21.80;60.40;;;;;;6290866;28;19916;-73
2023/06/12 13:29:31;;;;;;;;;;;21.80;60.40;;;;;;6291857;28;19908;-72
2023/06/12 13:32:33;;;;;;;;;;;21.80;60.40;;;;;;6295898;28;20006;-73
2023/06/12 13:35:34;;;;;;;;;;;21.70;60.30;;;;;;6296290;28;19912;-73
2023/06/12 13:38:35;;;;;;;;;;;21.70;60.30;;;;;;6296010;28;19919;-71
2023/06/12 13:41:35;;;;;;;;;;;21.70;60.40;;;;;;6295192;28;19913;-72
2023/06/12 13:44:36;;;;;;;;;;;21.80;60.50;;;;;;6294647;28;19958;-73
2023/06/12 13:47:36;;;;;;;;;;;21.80;60.40;;;;;;6295800;28;19909;-73
2023/06/12 13:50:38;;;;;;;;;;;21.70;60.40;;;;;;6296018;28;19908;-73
2023/06/12 13:53:39;;;;;;;;;;;21.80;60.50;;;;;;6295720;28;19916;-72
2023/06/12 13:56:40;;;;;;;;;;;21.70;60.40;;;;;;6295639;28;19915;-73
2023/06/12 13:59:40;;;;;;;;;;;21.70;60.40;;;;;;6284163;28;20426;-73
2023/06/12 14:02:41;;;;;;;;;;;21.80;60.50;;;;;;6273122;28;20286;-73
2023/06/12 14:05:41;;;;;;;;;;;21.80;60.70;;;;;;6276620;28;20053;-72
2023/06/12 14:08:42;;;;;;;;;;;21.80;60.20;;;;;;6290465;28;20598;-73
2023/06/12 14:11:42;;;;;;;;;;;21.80;60.10;;;;;;6295523;28;19916;-71
2023/06/12 14:14:46;;;;;;;;;;;22.00;60.40;;;;;;6294826;28;19924;-72
2023/06/12 14:17:47;;;;;;;;;;;22.00;60.60;;;;;;6295469;28;19909;-73
2023/06/12 14:20:48;;;;;;;;;;;22.00;60.40;;;;;;6295762;28;20349;-73
2023/06/12 14:23:48;;;;;;;;;;;22.00;60.40;;;;;;6287453;28;20477;-72
2023/06/12 14:26:49;;;;;;;;;;;22.00;60.30;;;;;;6294248;28;19913;-72
2023/06/12 14:29:49;;;;;;;;;;;22.00;60.30;;;;;;6295371;28;19936;-73
2023/06/12 14:32:50;;;;;;;;;;;22.00;60.30;;;;;;6296450;28;19917;-73
2023/06/12 14:35:51;;;;;;;;;;;22.00;60.20;;;;;;6311542;28;19915;-74
2023/06/12 14:38:51;;;;;;;;;;;22.00;60.20;;;;;;6299048;28;19916;-72
2023/06/12 14:41:52;;;;;;;;;;;22.00;60.20;;;;;;6318846;28;19931;-73
2023/06/12 14:44:52;;;;;;;;;;;22.00;60.10;;;;;;6304644;28;19908;-73
2023/06/12 14:47:53;;;;;;;;;;;22.00;60.10;;;;;;6296665;28;20423;-72
2023/06/12 14:50:53;;;;;;;;;;;22.00;60.10;;;;;;6296584;28;19926;-72
2023/06/12 14:53:54;;;;;;;;;;;22.00;60.10;;;;;;6313805;28;19939;-74
2023/06/12 14:56:54;;;;;;;;;;;22.00;60.00;;;;;;6297106;28;20493;-72
2023/06/12 14:59:55;;;;;;;;;;;22.00;60.00;;;;;;6285955;28;19999;-73
2023/06/12 15:02:55;;;;;;;;;;;22.00;60.00;;;;;;6300806;28;20376;-73
2023/06/12 15:05:56;;;;;;;;;;;22.00;60.00;;;;;;6306831;28;20053;-73
2023/06/12 15:08:56;;;;;;;;;;;22.00;60.00;;;;;;6313159;28;19917;-73
2023/06/12 15:11:57;;;;;;;;;;;22.00;60.00;;;;;;6309382;28;19908;-72
2023/06/12 15:14:57;;;;;;;;;;;22.00;60.00;;;;;;6283578;28;19939;-72
2023/06/12 15:17:58;;;;;;;;;;;22.00;60.00;;;;;;6322103;28;20056;-72
2023/06/12 15:20:58;;;;;;;;;;;22.00;60.00;;;;;;6308176;28;19912;-72
2023/06/12 15:23:59;;;;;;;;;;;22.00;59.90;;;;;;6304057;28;19916;-72
2023/06/12 15:26:59;;;;;;;;;;;22.00;60.00;;;;;;6296456;28;19966;-73
2023/06/12 15:30:00;;;;;;;;;;;22.00;59.90;;;;;;6284333;28;19909;-72
2023/06/12 15:33:00;;;;;;;;;;;22.00;59.90;;;;;;6294075;28;20379;-72
2023/06/12 15:36:01;;;;;;;;;;;22.00;59.90;;;;;;6285875;28;19908;-72
2023/06/12 15:39:02;;;;;;;;;;;22.00;59.90;;;;;;6296699;28;19964;-72
2023/06/12 15:42:02;;;;;;;;;;;22.00;59.90;;;;;;6295955;28;20310;-72
2023/06/12 15:45:03;;;;;;;;;;;22.00;59.90;;;;;;6285778;28;19909;-72
2023/06/12 15:48:04;;;;;;;;;;;22.00;59.90;;;;;;6291512;28;20407;-72
2023/06/12 15:51:05;;;;;;;;;;;22.00;60.00;;;;;;6283641;28;19908;-72
2023/06/12 15:54:05;;;;;;;;;;;22.00;60.00;;;;;;6317409;28;20056;-71
2023/06/12 15:57:10;;;;;;;;;;;22.00;60.00;;;;;;6293560;28;19908;-72
2023/06/12 16:00:12;;;;;;;;;;;22.00;60.00;;;;;;6284532;28;19910;-74
2023/06/12 16:03:13;;;;;;;;;;;21.90;59.90;;;;;;6281743;28;20437;-74
2023/06/12 16:06:14;;;;;;;;;;;21.90;59.90;;;;;;6289677;28;19969;-73
2023/06/12 16:09:14;;;;;;;;;;;21.90;59.90;;;;;;6317944;28;19908;-74
2023/06/12 16:12:15;;;;;;;;;;;22.00;60.00;;;;;;6294313;28;20274;-72
2023/06/12 16:15:15;;;;;;;;;;;21.90;59.90;;;;;;6284176;28;19916;-71
2023/06/12 16:18:16;;;;;;;;;;;22.00;60.00;;;;;;6284559;28;19915;-72
2023/06/12 16:21:17;;;;;;;;;;;21.90;59.90;;;;;;6276893;28;19909;-71
2023/06/12 16:24:17;;;;;;;;;;;21.90;60.80;;;;;;6316656;28;19947;-72
2023/06/12 16:27:18;;;;;;;;;;;21.90;60.00;;;;;;6299399;28;19908;-72
2023/06/12 16:30:20;;;;;;;;;;;21.90;60.00;;;;;;6309911;28;19909;-71
2023/06/12 16:33:21;;;;;;;;;;;21.90;60.40;;;;;;6291605;28;19920;-71
2023/06/12 16:36:21;;;;;;;;;;;21.90;61.00;;;;;;6278660;28;19923;-71
2023/06/12 16:39:24;;;;;;;;;;;21.90;60.00;;;;;;6315731;28;19955;-71
2023/06/12 16:42:24;;;;;;;;;;;21.90;60.00;;;;;;6292926;28;20279;-71
2023/06/12 16:45:25;;;;;;;;;;;21.90;60.10;;;;;;6285997;28;19913;-72
2023/06/12 16:48:25;;;;;;;;;;;21.90;60.20;;;;;;6280948;28;20335;-71
2023/06/12 16:51:26;;;;;;;;;;;21.90;60.20;;;;;;6286498;28;19961;-72
2023/06/12 16:54:26;;;;;;;;;;;21.90;60.20;;;;;;6314104;28;19969;-71
2023/06/12 16:57:27;;;;;;;;;;;21.90;61.10;;;;;;6294195;28;20322;-72
2023/06/12 17:00:27;;;;;;;;;;;21.90;60.20;;;;;;6287643;28;20275;-71
2023/06/12 17:03:28;;;;;;;;;;;21.80;60.20;;;;;;6283900;28;19924;-72
2023/06/12 17:06:28;;;;;;;;;;;21.80;60.20;;;;;;6318448;28;20033;-71
2023/06/12 17:09:29;;;;;;;;;;;21.80;60.20;;;;;;6300843;28;20033;-71
2023/06/12 17:12:29;;;;;;;;;;;21.90;60.30;;;;;;6301559;28;19921;-71
2023/06/12 17:15:30;;;;;;;;;;;21.90;60.30;;;;;;6292975;28;20128;-72
2023/06/12 17:18:30;;;;;;;;;;;21.80;60.20;;;;;;6294132;28;20003;-72
2023/06/12 17:21:31;;;;;;;;;;;21.80;60.20;;;;;;6286704;28;20260;-71
2023/06/12 17:24:31;;;;;;;;;;;21.80;60.20;;;;;;6288613;28;20363;-72
2023/06/12 17:27:32;;;;;;;;;;;21.80;60.30;;;;;;6296404;28;19913;-72
2023/06/12 17:30:33;;;;;;;;;;;21.80;60.20;;;;;;6320178;28;19965;-72
2023/06/12 17:33:34;;;;;;;;;;;21.80;60.30;;;;;;6295948;28;20370;-71